Time;durP1;ratioP1;P1;durP2;ratioP2;P2;SDS_P1;SDS_P2;PMS_P1;PMS_P2;Temp;Humidity;BMP_temperature;BMP_pressure;BME280_temperature;BME280_humidity;BME280_pressure;Samples;Min_cycle;Max_cycle;Signal;HPM_P1;HPM_P2
2022/12/20 00:01:15;;;;;;;;;12.00;11.00;;;;;11.88;67.71;101079.00;5033983;28;45544;-65
2022/12/20 00:03:41;;;;;;;;;11.00;9.25;;;;;11.86;68.14;101088.63;5051184;28;45998;-64
2022/12/20 00:06:07;;;;;;;;;12.00;8.00;;;;;11.86;68.00;101082.47;5036137;28;45533;-66
2022/12/20 00:08:35;;;;;;;;;10.50;9.50;;;;;11.88;68.17;101081.63;5049597;28;45403;-64
2022/12/20 00:11:02;;;;;;;;;11.25;9.75;;;;;11.85;67.96;101073.72;5033210;28;46656;-64
2022/12/20 00:13:28;;;;;;;;;11.75;10.00;;;;;11.86;68.09;101069.34;5050556;28;45815;-63
2022/12/20 00:16:11;;;;;;;;;7.00;7.00;;;;;11.86;67.76;101054.50;5050115;28;45595;-63
2022/12/20 00:18:38;;;;;;;;;13.00;11.50;;;;;11.86;67.69;101072.88;5071105;27;47204;-63
2022/12/20 00:21:06;;;;;;;;;7.50;7.50;;;;;11.82;67.65;101054.47;5049801;28;45622;-63
2022/12/20 00:23:33;;;;;;;;;9.00;8.33;;;;;11.85;67.73;101059.72;5037514;28;45533;-64
2022/12/20 00:26:08;;;;;;;;;9.00;8.00;;;;;11.90;67.94;101060.66;5053037;28;45484;-64
2022/12/20 00:28:35;;;;;;;;;8.00;8.00;;;;;11.83;67.94;101045.72;5049539;28;45556;-64
2022/12/20 00:31:01;;;;;;;;;11.50;7.75;;;;;11.81;67.73;101047.47;5046825;28;45338;-65
2022/12/20 00:33:27;;;;;;;;;9.00;9.00;;;;;11.87;67.77;101061.50;5050592;28;45850;-64
2022/12/20 00:35:57;;;;;;;;;12.50;9.50;;;;;11.83;67.64;101067.59;5032710;28;45938;-65
2022/12/20 00:38:24;;;;;;;;;8.75;8.25;;;;;11.83;67.69;101053.59;5047614;28;46489;-64
2022/12/20 00:41:00;;;;;;;;;11.00;8.25;;;;;11.83;67.94;101043.97;5047819;28;45355;-68
2022/12/20 00:43:25;;;;;;;;;10.00;8.75;;;;;11.86;67.44;101044.00;5023552;28;45497;-67
2022/12/20 00:45:51;;;;;;;;;9.50;8.75;;;;;11.70;67.47;101022.94;5050025;28;45536;-64
2022/12/20 00:48:16;;;;;;;;;10.75;9.25;;;;;11.87;67.87;101058.03;5050583;28;45654;-66
2022/12/20 00:50:42;;;;;;;;;10.25;10.00;;;;;11.87;67.48;101051.00;5048729;28;45624;-67
2022/12/20 00:53:09;;;;;;;;;8.50;7.25;;;;;11.85;67.55;101036.09;5047568;28;45721;-65
2022/12/20 00:55:40;;;;;;;;;6.67;6.00;;;;;11.86;67.83;101036.13;5049997;28;45650;-67
2022/12/20 00:58:05;;;;;;;;;7.50;4.00;;;;;11.73;67.84;101026.47;5029818;28;46841;-64
2022/12/20 01:00:31;;;;;;;;;11.00;8.25;;;;;11.74;67.66;101030.81;5046824;28;46021;-66
2022/12/20 01:02:56;;;;;;;;;12.00;9.25;;;;;11.72;67.88;101032.59;5033489;28;45616;-64
2022/12/20 01:05:22;;;;;;;;;9.25;9.25;;;;;11.78;67.79;101045.72;5047931;28;45838;-64
2022/12/20 01:07:48;;;;;;;;;8.75;8.75;;;;;11.68;68.23;101026.47;5048189;28;46323;-63
2022/12/20 01:10:13;;;;;;;;;8.50;8.50;;;;;11.76;68.36;101047.47;5033417;28;45494;-65
2022/12/20 01:12:42;;;;;;;;;12.50;8.50;;;;;11.75;68.11;101045.72;5053855;28;45627;-66
2022/12/20 01:15:08;;;;;;;;;8.50;7.50;;;;;11.66;68.26;101024.69;5052370;28;45257;-64
2022/12/20 01:17:33;;;;;;;;;11.00;9.50;;;;;11.66;68.10;101030.81;5053523;28;45708;-65
2022/12/20 01:19:59;;;;;;;;;8.50;8.00;;;;;11.74;68.70;101041.31;5055366;28;45382;-64
2022/12/20 01:22:25;;;;;;;;;8.25;8.25;;;;;11.76;68.04;101046.59;5058440;28;45392;-64
2022/12/20 01:24:53;;;;;;;;;11.50;9.00;;;;;11.67;68.32;101036.94;5060541;28;45442;-65
2022/12/20 01:27:18;;;;;;;;;10.75;8.75;;;;;11.64;68.57;101032.56;5056248;28;45548;-63
2022/12/20 01:29:44;;;;;;;;;10.25;8.50;;;;;11.70;68.50;101047.47;5061804;28;46202;-65
2022/12/20 01:32:09;;;;;;;;;9.25;8.50;;;;;11.64;68.61;101029.06;5054589;28;45445;-64
2022/12/20 01:34:42;;;;;;;;;8.50;7.25;;;;;11.70;68.66;101036.06;5057545;28;45390;-69
2022/12/20 01:37:09;;;;;;;;;8.50;8.25;;;;;11.69;68.64;101029.94;5041464;28;47370;-64
2022/12/20 01:39:34;;;;;;;;;12.50;7.75;;;;;11.68;68.63;101034.31;5056358;28;45802;-64
2022/12/20 01:42:00;;;;;;;;;6.75;6.25;;;;;11.62;69.04;101030.81;5053634;28;45509;-64
2022/12/20 01:44:25;;;;;;;;;11.75;8.25;;;;;11.69;68.94;101040.44;5043927;28;45367;-64
2022/12/20 01:46:52;;;;;;;;;11.00;8.50;;;;;11.62;68.65;101025.56;5057511;28;47895;-63
2022/12/20 01:49:41;;;;;;;;;8.00;6.50;;;;;11.71;68.66;101038.69;5059140;28;45611;-65
2022/12/20 01:52:36;;;;;;;;;8.25;7.00;;;;;11.71;68.97;101029.97;5055768;28;45576;-64
2022/12/20 01:55:04;;;;;;;;;7.75;7.75;;;;;11.68;68.38;101039.56;5051533;28;45548;-64
2022/12/20 01:57:46;;;;;;;;;13.25;6.25;;;;;11.61;68.52;101026.44;5050600;28;47614;-65
2022/12/20 02:00:12;;;;;;;;;10.75;8.25;;;;;11.62;68.77;101018.56;5054977;28;45497;-63
2022/12/20 02:02:39;;;;;;;;;7.25;7.25;;;;;11.65;68.93;101028.19;5054650;28;45461;-63
2022/12/20 02:05:09;;;;;;;;;8.25;7.25;;;;;11.64;68.99;101021.19;5038062;28;45962;-64
2022/12/20 02:07:37;;;;;;;;;8.25;6.25;;;;;11.66;68.64;101025.56;5058374;28;46196;-66
2022/12/20 02:10:05;;;;;;;;;12.00;8.25;;;;;11.64;68.50;101023.81;5058525;28;45449;-64
2022/12/20 02:12:42;;;;;;;;;10.75;7.75;;;;;11.62;68.05;101030.81;5061335;27;45490;-65
2022/12/20 02:15:45;;;;;;;;;8.50;7.50;;;;;11.68;68.32;101041.31;5054624;28;45825;-64
2022/12/20 02:18:29;;;;;;;;;6.50;6.50;;;;;11.68;68.27;101033.47;5045878;28;47719;-64
2022/12/20 02:21:33;;;;;;;;;9.00;7.00;;;;;11.61;68.72;101014.19;5041710;28;45404;-66
2022/12/20 02:24:05;;;;;;;;;9.00;7.25;;;;;11.71;68.50;101029.97;5053686;28;45635;-65
2022/12/20 02:27:06;;;;;;;;;8.00;8.00;;;;;11.70;68.27;101036.97;5055545;28;45342;-65
2022/12/20 02:30:06;;;;;;;;;8.00;8.00;;;;;11.71;68.30;101033.47;5055061;28;45410;-65
2022/12/20 02:32:34;;;;;;;;;11.25;5.50;;;;;11.72;67.77;101027.34;5036215;28;45785;-64
2022/12/20 02:35:01;;;;;;;;;7.25;6.50;;;;;11.66;67.82;101022.94;5047347;28;46012;-64
2022/12/20 02:37:27;;;;;;;;;10.50;7.25;;;;;11.68;67.96;101026.47;5044722;28;45543;-64
2022/12/20 02:39:53;;;;;;;;;8.75;7.00;;;;;11.69;68.19;101014.22;5070660;27;47668;-63
2022/12/20 02:42:23;;;;;;;;;6.25;5.75;;;;;11.71;68.05;101015.09;5058257;28;45465;-65
2022/12/20 02:45:14;;;;;;;;;8.50;7.50;;;;;11.67;67.40;101022.09;5054797;28;45415;-66
2022/12/20 02:47:52;;;;;;;;;7.00;6.75;;;;;11.68;67.95;101020.34;5068701;28;45508;-64
2022/12/20 02:50:24;;;;;;;;;12.50;6.50;;;;;11.66;67.43;101017.69;5054400;28;46946;-63
2022/12/20 02:52:50;;;;;;;;;7.25;5.25;;;;;11.67;67.63;101008.06;5057959;28;45466;-64
2022/12/20 02:55:17;;;;;;;;;7.00;6.25;;;;;11.62;67.42;100984.44;5058910;28;45392;-66
2022/12/20 02:57:55;;;;;;;;;8.75;8.00;;;;;11.69;67.27;100982.72;5059471;28;45651;-68
2022/12/20 03:00:22;;;;;;;;;7.75;7.50;;;;;11.67;67.25;100980.13;5058880;28;45474;-66
2022/12/20 03:05:42;;;;;;;;;5.00;5.00;;;;;11.60;67.54;100978.34;5058204;28;45663;-68
2022/12/20 03:08:08;;;;;;;;;7.25;7.25;;;;;11.53;67.48;100963.47;5056788;28;45614;-65
2022/12/20 03:10:33;;;;;;;;;7.75;7.25;;;;;11.59;67.93;100973.09;5054254;28;45597;-66
2022/12/20 03:12:59;;;;;;;;;11.50;8.00;;;;;11.55;67.72;100966.09;5052665;28;45421;-63
2022/12/20 03:15:27;;;;;;;;;5.50;5.50;;;;;11.56;67.82;100971.34;5044216;28;45264;-68
2022/12/20 03:17:53;;;;;;;;;6.25;6.25;;;;;11.53;68.28;100959.94;5059311;28;45465;-64
2022/12/20 03:20:19;;;;;;;;;8.00;7.00;;;;;11.51;67.64;100957.34;5058475;28;46027;-64
2022/12/20 03:22:44;;;;;;;;;7.00;5.75;;;;;11.54;67.88;100969.59;5039336;28;45446;-65
2022/12/20 03:25:10;;;;;;;;;5.67;5.67;;;;;11.46;67.81;100970.44;5054023;28;45879;-64
2022/12/20 03:27:36;;;;;;;;;6.25;5.75;;;;;11.40;67.18;100953.81;5038501;28;45635;-67
2022/12/20 03:30:02;;;;;;;;;7.00;5.75;;;;;11.50;67.82;100975.69;5053380;28;47635;-63
2022/12/20 03:32:28;;;;;;;;;4.00;4.00;;;;;11.48;67.78;100966.94;5054049;28;45510;-63
2022/12/20 03:34:53;;;;;;;;;6.75;5.00;;;;;11.51;67.73;100964.31;5054097;28;45436;-63
2022/12/20 03:37:19;;;;;;;;;6.25;6.25;;;;;11.48;67.17;100966.94;5052207;28;45600;-64
2022/12/20 03:39:45;;;;;;;;;8.50;5.25;;;;;11.38;67.25;100948.56;5054200;28;45414;-64
2022/12/20 03:42:10;;;;;;;;;9.00;5.25;;;;;11.40;67.44;100959.94;5035593;28;45461;-66
2022/12/20 03:44:36;;;;;;;;;6.00;3.00;;;;;11.38;67.08;100953.81;5053739;28;45442;-65
2022/12/20 03:47:01;;;;;;;;;5.25;4.00;;;;;11.40;67.44;100964.31;5056361;28;45491;-67
2022/12/20 03:49:27;;;;;;;;;5.25;4.50;;;;;11.44;67.16;100973.94;5053758;28;45593;-66
2022/12/20 03:51:52;;;;;;;;;6.00;4.00;;;;;11.51;67.31;100972.19;5054943;28;45418;-63
2022/12/20 03:54:18;;;;;;;;;8.00;5.25;;;;;11.46;67.22;100959.09;5055630;28;45564;-64
2022/12/20 03:56:43;;;;;;;;;4.75;4.25;;;;;11.37;67.17;100945.97;5053565;28;45378;-63
2022/12/20 03:59:09;;;;;;;;;7.50;6.00;;;;;11.47;66.82;100968.69;5056661;28;46868;-64
2022/12/20 04:01:35;;;;;;;;;5.00;5.00;;;;;11.45;67.54;100959.94;5057859;28;45521;-64
2022/12/20 04:04:01;;;;;;;;;7.00;5.00;;;;;11.45;67.01;100955.56;5051935;28;45541;-64
2022/12/20 04:06:30;;;;;;;;;5.00;5.00;;;;;11.49;67.21;100960.84;5053567;28;45311;-66
2022/12/20 04:08:56;;;;;;;;;4.00;4.00;;;;;11.46;66.96;100959.97;5056288;28;46733;-63
2022/12/20 04:11:21;;;;;;;;;4.00;4.00;;;;;11.43;67.18;100949.44;5057866;28;45462;-64
2022/12/20 04:13:49;;;;;;;;;6.75;4.50;;;;;11.45;66.99;100947.69;5056705;28;45370;-65
2022/12/20 04:16:18;;;;;;;;;4.00;4.00;;;;;11.42;66.78;100945.09;5057292;28;45504;-64
2022/12/20 04:18:44;;;;;;;;;4.00;4.00;;;;;11.44;66.63;100939.84;5057067;28;46573;-65
2022/12/20 04:21:11;;;;;;;;;6.00;4.25;;;;;11.39;66.98;100925.81;5037527;28;45955;-64
2022/12/20 04:23:38;;;;;;;;;5.50;5.00;;;;;11.46;67.54;100933.72;5053231;28;45451;-65
2022/12/20 04:26:06;;;;;;;;;3.50;3.25;;;;;11.44;67.31;100937.22;5053760;28;45446;-63
2022/12/20 04:28:32;;;;;;;;;4.25;3.75;;;;;11.43;67.26;100914.47;5038641;28;46609;-65
2022/12/20 04:30:58;;;;;;;;;7.50;4.00;;;;;11.48;67.25;100919.72;5053403;28;45466;-64
2022/12/20 04:33:25;;;;;;;;;5.00;5.00;;;;;11.46;66.75;100914.50;5051902;28;45439;-65
2022/12/20 04:35:51;;;;;;;;;6.25;3.75;;;;;11.48;66.93;100919.72;5053556;28;45461;-63
2022/12/20 04:38:19;;;;;;;;;4.00;3.33;;;;;11.37;67.13;100904.00;5053519;28;45719;-65
2022/12/20 04:40:44;;;;;;;;;6.25;3.50;;;;;11.45;67.30;100926.72;5052490;28;45470;-64
2022/12/20 04:43:10;;;;;;;;;5.75;5.25;;;;;11.48;67.22;100928.47;5053028;28;45475;-64
2022/12/20 04:45:35;;;;;;;;;4.50;4.50;;;;;11.41;66.62;100919.75;5068751;28;45480;-66
2022/12/20 04:48:01;;;;;;;;;6.25;4.00;;;;;11.40;66.59;100910.09;5055715;28;46011;-64
2022/12/20 04:50:27;;;;;;;;;3.25;3.25;;;;;11.36;67.17;100904.84;5050979;28;46125;-62
2022/12/20 04:55:38;;;;;;;;;6.75;5.75;;;;;11.48;66.83;100917.97;5053042;28;45513;-65
2022/12/20 04:58:04;;;;;;;;;5.25;5.25;;;;;11.49;66.70;100918.88;5055944;28;45402;-67
2022/12/20 05:00:31;;;;;;;;;4.00;3.00;;;;;11.47;67.06;100924.09;5052497;28;45386;-66
2022/12/20 05:02:57;;;;;;;;;4.00;4.00;;;;;11.43;66.89;100909.22;5051448;28;45499;-65
2022/12/20 05:05:22;;;;;;;;;6.00;5.25;;;;;11.45;66.71;100925.84;5053276;28;45611;-66
2022/12/20 05:07:48;;;;;;;;;5.75;3.50;;;;;11.48;67.28;100924.97;5051482;28;45701;-66
2022/12/20 05:10:14;;;;;;;;;3.50;3.00;;;;;11.48;66.94;100917.09;5052609;28;45395;-66
2022/12/20 05:12:39;;;;;;;;;6.00;5.25;;;;;11.49;66.96;100901.38;5035037;28;45512;-66
2022/12/20 05:15:06;;;;;;;;;5.50;4.50;;;;;11.53;66.86;100891.75;5052927;28;45786;-65
2022/12/20 05:17:32;;;;;;;;;3.75;3.75;;;;;11.51;66.52;100899.63;5052541;28;45539;-66
2022/12/20 05:19:58;;;;;;;;;4.25;4.00;;;;;11.54;66.39;100898.75;5052260;28;45513;-65
2022/12/20 05:27:53;;;;;;;;;3.50;3.00;;;;;11.59;66.56;100881.28;5051920;28;45905;-65
2022/12/20 05:30:19;;;;;;;;;4.75;3.75;;;;;11.61;66.13;100890.91;5052513;28;45488;-63
2022/12/20 05:32:44;;;;;;;;;4.25;4.25;;;;;11.56;66.56;100876.91;5052617;28;45481;-63
2022/12/20 05:35:10;;;;;;;;;4.00;4.00;;;;;11.61;66.49;100880.41;5040455;28;45249;-63
2022/12/20 05:37:35;;;;;;;;;5.75;4.50;;;;;11.59;66.31;100876.91;5043354;28;47584;-64
2022/12/20 05:40:01;;;;;;;;;3.75;3.50;;;;;11.62;66.45;100881.25;5045919;28;45567;-64
2022/12/20 05:42:26;;;;;;;;;4.75;3.75;;;;;11.69;66.14;100890.88;5068055;27;45901;-66
2022/12/20 05:44:52;;;;;;;;;4.33;3.00;;;;;11.67;66.42;100880.41;5033978;28;45522;-67
2022/12/20 05:47:18;;;;;;;;;4.50;3.00;;;;;11.70;65.72;100895.28;5054511;28;48881;-64
2022/12/20 05:49:43;;;;;;;;;3.75;3.75;;;;;11.56;66.02;100863.78;5055198;28;45669;-65
2022/12/20 05:52:09;;;;;;;;;3.00;3.00;;;;;11.72;66.34;100877.78;5056246;28;45423;-64
2022/12/20 05:54:35;;;;;;;;;4.75;3.00;;;;;11.72;66.50;100875.16;5082694;27;45614;-65
2022/12/20 05:57:01;;;;;;;;;3.00;3.00;;;;;11.77;66.44;100885.63;5056417;28;45630;-64
2022/12/20 05:59:26;;;;;;;;;2.25;2.25;;;;;11.78;66.60;100895.25;5041400;28;45873;-63
2022/12/20 06:01:52;;;;;;;;;7.00;2.67;;;;;11.73;66.04;100881.28;5055355;28;45461;-63
2022/12/20 06:04:17;;;;;;;;;3.50;3.00;;;;;11.79;65.86;100882.16;5055059;28;45493;-63
2022/12/20 06:06:42;;;;;;;;;6.75;4.50;;;;;11.65;65.85;100857.66;5061326;28;46301;-65
2022/12/20 06:09:08;;;;;;;;;4.00;3.50;;;;;11.70;66.37;100869.03;5056875;28;45602;-64
2022/12/20 06:11:34;;;;;;;;;4.00;4.00;;;;;11.73;66.13;100886.53;5053986;28;45569;-63
2022/12/20 06:13:59;;;;;;;;;5.00;5.00;;;;;11.64;65.81;100875.13;5055311;28;45474;-64
2022/12/20 06:16:25;;;;;;;;;4.00;4.00;;;;;11.76;65.97;100890.00;5057673;28;46516;-64
2022/12/20 06:18:50;;;;;;;;;4.00;3.33;;;;;11.72;66.08;100880.41;5059582;28;45470;-64
2022/12/20 06:21:16;;;;;;;;;4.33;3.00;;;;;11.78;65.92;100896.13;5055392;28;45718;-64
2022/12/20 06:23:42;;;;;;;;;4.00;4.00;;;;;11.67;65.76;100882.13;5056052;28;45438;-65
2022/12/20 06:26:08;;;;;;;;;7.33;3.00;;;;;11.77;66.13;100902.28;5057979;28;46615;-65
2022/12/20 06:28:41;;;;;;;;;5.00;4.00;;;;;11.72;65.86;100879.50;5057925;28;45455;-65
2022/12/20 06:31:07;;;;;;;;;2.33;2.33;;;;;11.78;65.76;100893.50;5056992;28;45361;-65
2022/12/20 06:33:33;;;;;;;;;8.50;4.00;;;;;11.66;65.70;100886.50;5055753;28;45900;-65
2022/12/20 06:35:59;;;;;;;;;3.75;3.00;;;;;11.82;65.94;100903.13;5054285;28;46194;-64
2022/12/20 06:38:24;;;;;;;;;4.33;3.00;;;;;11.80;66.06;100891.75;5055064;28;45392;-64
2022/12/20 06:40:50;;;;;;;;;7.00;3.00;;;;;11.68;65.72;100868.16;5055507;28;45742;-65
2022/12/20 06:43:16;;;;;;;;;4.00;3.50;;;;;11.80;66.12;100877.78;5034093;28;45459;-65
2022/12/20 06:45:42;;;;;;;;;5.33;3.33;;;;;11.84;66.32;100892.63;5031048;28;47677;-66
2022/12/20 06:48:08;;;;;;;;;3.33;3.33;;;;;11.84;66.09;100885.66;5055381;28;45415;-66
2022/12/20 06:50:33;;;;;;;;;3.00;3.00;;;;;11.87;66.35;100890.91;5058293;28;45422;-66
2022/12/20 06:52:59;;;;;;;;;6.00;4.00;;;;;11.88;66.36;100891.78;5059111;28;45415;-65
2022/12/20 06:55:24;;;;;;;;;6.67;4.67;;;;;11.85;66.40;100884.75;5056559;28;47959;-66
2022/12/20 06:57:50;;;;;;;;;3.00;3.00;;;;;11.84;66.21;100877.78;5054615;28;45399;-68
2022/12/20 07:00:16;;;;;;;;;5.67;2.33;;;;;11.92;66.37;100884.78;5054367;28;45505;-67
2022/12/20 07:02:42;;;;;;;;;4.67;4.67;;;;;11.86;66.17;100878.66;5055250;28;45821;-67
2022/12/20 07:05:08;;;;;;;;;3.67;3.67;;;;;11.92;66.10;100887.41;5056918;28;47411;-67
2022/12/20 07:07:33;;;;;;;;;3.67;3.33;;;;;11.86;66.19;100886.53;5057185;28;45477;-66
2022/12/20 07:09:59;;;;;;;;;4.67;4.67;;;;;11.90;66.08;100878.66;5054171;28;45345;-66
2022/12/20 07:12:24;;;;;;;;;6.67;3.67;;;;;11.87;65.84;100885.66;5054268;28;45481;-65
2022/12/20 07:14:50;;;;;;;;;3.00;3.00;;;;;11.93;66.56;100886.53;5041165;28;45695;-67
2022/12/20 07:17:16;;;;;;;;;3.67;3.33;;;;;11.96;66.31;100897.00;5057394;28;45372;-67
2022/12/20 07:19:42;;;;;;;;;3.00;3.00;;;;;12.00;66.39;100896.16;5058203;28;45399;-66
2022/12/20 07:22:07;;;;;;;;;5.25;3.50;;;;;12.00;66.18;100888.28;5054679;28;45470;-65
2022/12/20 07:24:33;;;;;;;;;3.67;3.67;;;;;11.97;65.56;100883.03;5052687;28;47755;-67
2022/12/20 07:27:00;;;;;;;;;4.00;4.00;;;;;11.99;65.95;100889.16;5054127;28;45836;-66
2022/12/20 07:29:25;;;;;;;;;7.33;3.00;;;;;11.96;65.49;100881.28;5054523;28;45534;-65
2022/12/20 07:31:51;;;;;;;;;4.67;3.67;;;;;11.90;65.63;100866.41;5047538;28;45545;-67
2022/12/20 07:34:17;;;;;;;;;1.33;1.00;;;;;12.00;65.44;100873.38;5053341;28;45800;-67
2022/12/20 07:36:43;;;;;;;;;4.33;4.00;;;;;12.01;65.68;100877.78;5053481;28;45489;-66
2022/12/20 07:39:09;;;;;;;;;4.00;4.00;;;;;12.03;65.68;100881.28;5053343;28;45503;-63
2022/12/20 07:41:35;;;;;;;;;3.25;3.25;;;;;12.04;65.65;100885.66;5053444;28;45474;-64
2022/12/20 07:44:00;;;;;;;;;3.67;3.00;;;;;12.07;65.62;100887.38;5056610;28;45994;-64
2022/12/20 07:46:26;;;;;;;;;5.00;3.50;;;;;12.09;65.70;100894.38;5055727;28;45466;-64
2022/12/20 07:48:52;;;;;;;;;4.00;4.00;;;;;12.11;65.26;100906.66;5054238;28;45504;-65
2022/12/20 07:51:25;;;;;;;;;6.33;4.67;;;;;12.08;65.69;100899.66;5053983;28;45492;-64
2022/12/20 07:54:15;;;;;;;;;5.00;3.75;;;;;12.03;65.34;100877.75;5031929;28;46848;-65
2022/12/20 07:56:50;;;;;;;;;5.33;4.00;;;;;12.09;65.38;100894.38;5053969;28;45450;-66
2022/12/20 07:59:20;;;;;;;;;4.50;3.75;;;;;12.13;65.20;100883.91;5045059;28;45454;-66
2022/12/20 08:01:47;;;;;;;;;6.00;4.00;;;;;12.13;65.09;100894.41;5045250;28;45483;-64
2022/12/20 08:04:23;;;;;;;;;7.00;6.33;;;;;12.11;65.16;100897.00;5057242;28;45630;-66
2022/12/20 08:06:51;;;;;;;;;6.00;4.00;;;;;12.06;65.15;100883.91;5055034;28;45482;-64
2022/12/20 08:09:18;;;;;;;;;6.33;4.00;;;;;11.98;64.64;100875.16;5053323;28;45496;-64
2022/12/20 08:11:47;;;;;;;;;4.00;4.00;;;;;12.14;65.25;100896.13;5054578;28;45628;-65
2022/12/20 08:14:13;;;;;;;;;4.25;4.00;;;;;12.06;64.57;100875.16;5053273;28;46239;-65
2022/12/20 08:16:39;;;;;;;;;4.00;4.00;;;;;12.17;65.12;100893.50;5058061;28;45478;-65
2022/12/20 08:19:05;;;;;;;;;6.67;5.00;;;;;12.71;64.40;100881.94;5058130;28;45489;-64
2022/12/20 08:21:30;;;;;;;;;2.33;2.33;;;;;13.38;61.63;100900.00;5054420;28;45436;-65
2022/12/20 08:23:56;;;;;;;;;7.50;6.00;;;;;13.01;62.15;100884.44;5051461;28;46838;-65
2022/12/20 08:26:22;;;;;;;;;5.00;3.00;;;;;12.88;62.84;100896.75;5057556;28;45263;-65
2022/12/20 08:28:47;;;;;;;;;7.67;4.67;;;;;12.75;62.77;100897.72;5057879;28;45408;-65
2022/12/20 08:31:13;;;;;;;;;6.00;3.33;;;;;12.69;63.25;100890.69;5055356;28;45443;-64
2022/12/20 08:33:39;;;;;;;;;5.33;5.33;;;;;12.58;63.69;100882.88;5052371;28;45443;-65
2022/12/20 08:36:08;;;;;;;;;7.67;4.33;;;;;12.49;62.92;100875.91;5052499;28;45305;-65
2022/12/20 08:38:34;;;;;;;;;4.67;3.33;;;;;12.51;63.38;100889.03;5037760;28;45802;-65
2022/12/20 08:41:09;;;;;;;;;4.00;4.00;;;;;12.49;63.65;100885.53;5055822;28;45752;-64
2022/12/20 08:43:36;;;;;;;;;3.00;2.00;;;;;12.40;63.34;100877.69;5039000;28;47375;-65
2022/12/20 08:46:03;;;;;;;;;3.33;3.33;;;;;12.39;63.91;100892.56;5055877;28;45436;-64
2022/12/20 08:48:29;;;;;;;;;8.33;4.33;;;;;12.37;63.76;100888.22;5038848;28;45498;-63
2022/12/20 08:51:01;;;;;;;;;5.00;4.00;;;;;12.29;63.59;100881.22;5054130;28;45496;-64
2022/12/20 08:53:28;;;;;;;;;4.33;4.33;;;;;12.18;63.74;100864.63;5052631;28;46806;-64
2022/12/20 08:56:01;;;;;;;;;6.33;4.00;;;;;12.38;63.60;100900.44;5052998;28;45512;-66
2022/12/20 08:58:30;;;;;;;;;5.75;5.75;;;;;12.40;63.18;100888.19;5055030;28;45521;-66
2022/12/20 09:00:59;;;;;;;;;5.33;4.00;;;;;12.26;63.89;100864.59;5057948;28;45465;-64
2022/12/20 09:03:26;;;;;;;;;7.00;4.67;;;;;12.37;63.23;100898.72;5057931;28;45414;-66
2022/12/20 09:05:52;;;;;;;;;3.00;3.00;;;;;12.36;64.13;100896.94;5057090;28;46866;-64
2022/12/20 09:08:17;;;;;;;;;5.00;3.00;;;;;12.35;63.88;100890.81;5052625;28;45708;-64
2022/12/20 09:10:43;;;;;;;;;5.67;3.33;;;;;12.31;64.30;100883.81;5052055;28;45434;-64
2022/12/20 09:13:10;;;;;;;;;5.67;5.33;;;;;12.36;64.54;100899.56;5054649;28;45342;-64
2022/12/20 09:15:36;;;;;;;;;6.33;4.00;;;;;12.30;64.41;100893.47;5050184;28;45728;-64
2022/12/20 09:18:01;;;;;;;;;3.33;3.33;;;;;12.35;64.61;100903.09;5031418;28;45435;-64
2022/12/20 09:20:28;;;;;;;;;7.00;4.00;;;;;12.36;65.25;100910.06;5066107;28;45821;-64
2022/12/20 09:22:53;;;;;;;;;4.33;4.33;;;;;12.30;64.88;100900.47;5052563;28;46274;-66
2022/12/20 09:25:20;;;;;;;;;4.00;4.00;;;;;12.36;65.33;100905.69;5053446;28;45583;-64
2022/12/20 09:27:46;;;;;;;;;5.00;3.00;;;;;12.36;65.64;100907.44;5056936;28;45520;-64
2022/12/20 09:30:12;;;;;;;;;4.33;3.00;;;;;12.33;66.91;100907.47;5054152;28;45237;-65
2022/12/20 09:32:37;;;;;;;;;4.00;2.67;;;;;12.30;67.04;100911.84;5052494;28;46380;-65
2022/12/20 09:35:04;;;;;;;;;6.00;5.33;;;;;12.24;67.05;100905.72;5053816;28;45430;-63
2022/12/20 09:37:31;;;;;;;;;5.67;3.33;;;;;12.23;68.48;100899.59;5054873;28;45365;-64
2022/12/20 09:39:57;;;;;;;;;7.67;4.67;;;;;12.17;69.12;100904.91;5058630;28;45565;-66
2022/12/20 09:42:26;;;;;;;;;6.00;3.00;;;;;12.04;68.66;100897.91;5055598;28;45896;-65
2022/12/20 09:45:07;;;;;;;;;5.33;3.00;;;;;12.09;68.71;100891.75;5037890;28;45390;-69
2022/12/20 09:47:35;;;;;;;;;4.67;4.00;;;;;12.18;69.56;100908.38;5055318;28;45469;-66
2022/12/20 09:50:03;;;;;;;;;5.00;4.00;;;;;12.19;70.20;100904.88;5048050;28;45525;-64
2022/12/20 09:52:34;;;;;;;;;5.00;3.25;;;;;12.20;71.21;100898.75;5044836;28;45446;-68
2022/12/20 09:55:00;;;;;;;;;5.33;4.00;;;;;12.20;70.22;100901.38;5048707;28;45458;-68
2022/12/20 09:57:56;;;;;;;;;4.67;3.00;;;;;12.20;71.17;100897.00;5056314;28;45591;-64
2022/12/20 10:00:22;;;;;;;;;6.00;5.00;;;;;12.15;71.89;100898.75;5053896;28;45765;-65
2022/12/20 10:02:49;;;;;;;;;6.33;4.67;;;;;12.11;72.69;100885.66;5055470;28;46016;-67
2022/12/20 10:05:32;;;;;;;;;4.50;4.50;;;;;12.11;72.73;100899.63;5055336;28;45689;-67
2022/12/20 10:08:26;;;;;;;;;5.67;3.00;;;;;12.00;73.42;100883.03;5054585;28;45781;-66
2022/12/20 10:11:08;;;;;;;;;3.33;3.33;;;;;11.91;73.75;100876.03;5056892;28;45385;-68
2022/12/20 10:14:06;;;;;;;;;8.00;4.00;;;;;11.95;73.76;100863.78;5040858;28;46335;-71
2022/12/20 10:17:01;;;;;;;;;6.25;5.25;;;;;11.98;74.00;100877.78;5054858;28;45518;-68
2022/12/20 10:20:04;;;;;;;;;6.50;5.00;;;;;11.98;73.88;100885.66;5048308;28;45580;-69
2022/12/20 10:22:43;;;;;;;;;6.33;4.67;;;;;11.94;74.07;100883.06;5047921;28;45458;-68
2022/12/20 10:25:13;;;;;;;;;6.50;4.50;;;;;12.01;73.84;100895.28;5043988;28;45767;-69
2022/12/20 10:27:48;;;;;;;;;5.33;5.33;;;;;11.91;74.11;100891.78;5056379;28;45535;-67
2022/12/20 10:30:18;;;;;;;;;4.00;4.00;;;;;11.95;74.37;100887.41;5037426;28;45403;-68
2022/12/20 10:32:47;;;;;;;;;4.00;4.00;;;;;11.92;74.82;100869.06;5042141;28;45359;-67
2022/12/20 10:35:30;;;;;;;;;6.50;3.50;;;;;11.90;73.55;100853.28;5040855;28;47020;-67
2022/12/20 10:38:05;;;;;;;;;4.67;4.67;;;;;12.11;74.05;100873.38;5053804;28;45544;-69
2022/12/20 10:40:38;;;;;;;;;6.33;6.33;;;;;12.10;73.94;100863.75;5047623;28;45816;-64
2022/12/20 10:43:05;;;;;;;;;4.67;4.00;;;;;12.14;73.57;100864.63;5055442;28;45808;-66
2022/12/20 10:45:37;;;;;;;;;5.75;5.75;;;;;12.07;73.65;100858.50;5054005;28;45647;-65
2022/12/20 10:48:29;;;;;;;;;4.00;4.00;;;;;12.10;74.21;100874.25;5037932;28;45643;-65
2022/12/20 10:50:57;;;;;;;;;7.00;5.50;;;;;12.11;74.20;100873.38;5055991;28;45497;-64
2022/12/20 10:53:28;;;;;;;;;4.00;3.33;;;;;12.12;73.89;100879.50;5059634;28;45554;-65
2022/12/20 10:56:27;;;;;;;;;7.75;6.50;;;;;12.01;74.62;100875.16;5058358;28;45421;-67
2022/12/20 10:59:02;;;;;;;;;8.00;6.00;;;;;11.96;74.73;100881.28;5050808;28;45362;-67
2022/12/20 11:01:32;;;;;;;;;11.75;7.00;;;;;11.94;74.71;100876.03;5048795;28;45443;-66
2022/12/20 11:04:19;;;;;;;;;8.50;6.00;;;;;11.89;74.62;100872.56;5044083;28;45385;-64
2022/12/20 11:06:45;;;;;;;;;7.50;5.75;;;;;11.98;74.59;100877.78;5028264;28;48160;-64
2022/12/20 11:09:25;;;;;;;;;7.75;6.50;;;;;11.75;74.57;100843.66;5048578;28;45513;-65
2022/12/20 11:12:14;;;;;;;;;5.50;5.00;;;;;11.80;75.46;100867.28;5033604;28;45523;-64
2022/12/20 11:14:43;;;;;;;;;8.00;6.25;;;;;11.74;75.35;100847.16;5038648;28;45709;-65
2022/12/20 11:17:34;;;;;;;;;8.75;6.75;;;;;11.66;75.49;100836.66;5068381;28;46870;-66
2022/12/20 11:20:07;;;;;;;;;5.25;5.25;;;;;11.73;75.25;100863.78;5044019;28;45514;-67
2022/12/20 11:23:05;;;;;;;;;5.25;5.25;;;;;11.70;75.35;100857.66;5056864;28;45462;-66
2022/12/20 11:25:59;;;;;;;;;6.25;6.00;;;;;11.66;75.03;100836.66;5054622;28;45516;-69
2022/12/20 11:28:40;;;;;;;;;8.00;5.75;;;;;11.70;75.27;100860.25;5037355;28;46320;-66
2022/12/20 11:31:35;;;;;;;;;6.75;6.25;;;;;11.68;74.66;100861.16;5040831;28;45508;-66
2022/12/20 11:34:32;;;;;;;;;8.00;6.25;;;;;11.65;75.45;100858.53;5055228;28;45475;-65
2022/12/20 11:37:13;;;;;;;;;7.25;6.50;;;;;11.66;75.37;100855.03;5032618;28;45964;-66
2022/12/20 11:40:04;;;;;;;;;7.50;6.75;;;;;11.68;75.08;100839.31;5040395;28;46904;-67
2022/12/20 11:43:08;;;;;;;;;7.75;6.25;;;;;11.73;75.11;100841.91;5053653;28;45501;-66
2022/12/20 11:45:55;;;;;;;;;10.75;6.50;;;;;11.70;75.22;100836.66;5048740;28;45800;-70
2022/12/20 11:48:20;;;;;;;;;9.50;6.25;;;;;11.75;75.22;100832.31;5029159;28;45291;-68